createdAt,value
2018-05-24T00:04:17.890Z,66.20
2018-05-24T00:06:55.464Z,64.90
2018-05-24T00:09:31.768Z,64.80
2018-05-24T00:12:07.296Z,64.70
2018-05-24T00:14:42.826Z,66.90
2018-05-24T00:17:16.406Z,68.60
2018-05-24T00:19:53.282Z,68.30
2018-05-24T00:22:29.971Z,69.20
2018-05-24T00:25:02.601Z,68.70
2018-05-24T00:27:37.627Z,68.00
2018-05-24T00:30:13.450Z,67.50
2018-05-24T00:35:48.049Z,77.30
2018-05-24T00:38:16.829Z,77.30
2018-05-24T00:40:46.356Z,74.80
2018-05-24T00:43:15.091Z,74.70
2018-05-24T00:45:44.051Z,74.10
2018-05-24T00:48:12.807Z,72.70
2018-05-24T00:50:42.538Z,73.10
2018-05-24T00:53:11.684Z,73.10
2018-05-24T00:55:41.231Z,73.00
2018-05-24T00:58:11.846Z,71.10
2018-05-24T01:00:42.444Z,74.90
2018-05-24T01:03:12.629Z,76.40
2018-05-24T01:05:41.800Z,76.30
2018-05-24T01:08:10.610Z,75.80
2018-05-24T01:10:40.112Z,75.70
2018-05-24T01:13:08.946Z,75.70
2018-05-24T01:15:37.663Z,74.40
2018-05-24T01:18:12.889Z,73.70
2018-05-24T01:20:47.313Z,72.30
2018-05-24T01:23:23.405Z,71.90
2018-05-24T01:25:59.414Z,75.10
2018-05-24T01:28:33.687Z,74.60
2018-05-24T01:31:09.932Z,72.00
2018-05-24T01:33:49.455Z,72.50
2018-05-24T01:36:25.163Z,72.50
2018-05-24T01:39:01.510Z,70.80
2018-05-24T01:41:52.193Z,70.40
2018-05-24T01:44:26.026Z,70.40
2018-05-24T01:47:00.605Z,70.00
2018-05-24T01:49:37.829Z,72.10
2018-05-24T01:52:07.450Z,72.10
2018-05-24T01:54:42.208Z,70.40
2018-05-24T01:57:14.074Z,73.30
2018-05-24T01:59:48.433Z,74.50
2018-05-24T02:02:22.344Z,73.70
2018-05-24T02:04:59.577Z,72.10
2018-05-24T02:07:35.336Z,72.00
2018-05-24T02:10:09.965Z,72.00
2018-05-24T02:12:47.321Z,72.90
2018-05-24T02:15:20.410Z,72.90
2018-05-24T02:17:54.039Z,72.60
2018-05-24T02:20:29.393Z,72.20
2018-05-24T02:23:02.151Z,71.10
2018-05-24T02:25:39.002Z,70.80
2018-05-24T02:28:13.036Z,71.00
2018-05-24T02:30:49.715Z,69.70
2018-05-24T02:33:24.948Z,69.60
2018-05-24T02:36:01.301Z,69.70
2018-05-24T02:38:37.097Z,69.30
2018-05-24T02:41:09.232Z,69.00
2018-05-24T02:46:22.805Z,70.00
2018-05-24T02:48:57.170Z,70.60
2018-05-24T02:51:30.745Z,70.90
2018-05-24T02:54:04.541Z,70.90
2018-05-24T02:56:39.637Z,71.50
2018-05-24T02:59:15.187Z,71.00
2018-05-24T03:01:48.499Z,70.60
2018-05-24T03:04:25.686Z,71.10
2018-05-24T03:06:58.865Z,74.00
2018-05-24T03:09:33.040Z,75.20
2018-05-24T03:14:46.534Z,75.20
2018-05-24T03:17:21.223Z,76.10
2018-05-24T03:19:55.400Z,76.80
2018-05-24T03:22:25.569Z,76.10
2018-05-24T03:25:01.418Z,74.00
2018-05-24T03:27:35.999Z,72.30
2018-05-24T03:30:10.526Z,71.20
2018-05-24T03:32:42.438Z,72.20
2018-05-24T03:35:15.590Z,72.00
2018-05-24T03:38:00.220Z,70.90
2018-05-24T03:40:34.453Z,69.90
2018-05-24T03:43:08.498Z,69.50
2018-05-24T03:45:46.990Z,70.50
2018-05-24T03:48:22.325Z,72.50
2018-05-24T03:51:01.950Z,73.50
2018-05-24T03:53:36.376Z,73.40
2018-05-24T03:56:08.729Z,73.60
2018-05-24T03:58:42.865Z,73.50
2018-05-24T04:01:27.716Z,73.70
2018-05-24T04:17:22.361Z,71.20
2018-05-24T04:19:53.732Z,71.20
2018-05-24T04:22:29.644Z,70.00
2018-05-24T04:25:04.443Z,70.40
2018-05-24T04:27:36.216Z,70.00
2018-05-24T04:30:12.327Z,70.00
2018-05-24T04:35:26.955Z,71.20
2018-05-24T04:37:59.360Z,71.20
2018-05-24T04:40:36.643Z,70.60
2018-05-24T04:43:17.629Z,70.50
2018-05-24T04:45:57.729Z,70.20
2018-05-24T04:48:31.406Z,70.90
2018-05-24T04:53:44.409Z,70.20
2018-05-24T04:56:14.052Z,70.60
2018-05-24T04:58:47.560Z,70.60
2018-05-24T05:01:19.960Z,70.70
2018-05-24T05:03:56.486Z,71.60
2018-05-24T05:06:29.941Z,71.60
2018-05-24T05:09:05.316Z,72.30
2018-05-24T05:11:36.505Z,72.10
2018-05-24T05:14:15.324Z,71.60
2018-05-24T05:16:53.293Z,72.40
2018-05-24T05:19:27.838Z,72.30
2018-05-24T05:22:02.623Z,72.30
2018-05-24T05:24:40.399Z,73.40
2018-05-24T05:27:13.505Z,74.80
2018-05-24T05:29:47.484Z,75.30
2018-05-24T05:32:20.605Z,74.60
2018-05-24T05:37:33.695Z,73.50
2018-05-24T05:40:08.795Z,73.60
2018-05-24T05:42:45.345Z,73.30
2018-05-24T05:45:17.694Z,73.00
2018-05-24T05:47:58.104Z,73.30
2018-05-24T05:50:32.313Z,72.50
2018-05-24T05:53:11.302Z,70.90
2018-05-24T05:58:24.405Z,68.80
2018-05-24T06:00:58.013Z,68.10
2018-05-24T06:06:19.591Z,68.30
2018-05-24T06:08:59.287Z,69.20
2018-05-24T06:11:38.056Z,69.00
2018-05-24T06:14:14.422Z,68.40
2018-05-24T06:16:48.314Z,69.60
2018-05-24T06:19:23.459Z,69.00
2018-05-24T06:21:57.320Z,69.70
2018-05-24T06:24:37.837Z,70.70
2018-05-24T06:27:13.790Z,68.80
2018-05-24T06:29:52.079Z,70.10
2018-05-24T06:32:27.417Z,68.30
2018-05-24T06:35:01.740Z,68.60
2018-05-24T06:37:38.265Z,69.30
2018-05-24T06:40:15.510Z,66.90
2018-05-24T06:42:48.079Z,67.90
2018-05-24T06:45:24.351Z,67.30
2018-05-24T06:48:02.172Z,70.00
2018-05-24T06:50:40.386Z,69.40
2018-05-24T06:53:16.593Z,67.20
2018-05-24T06:58:32.848Z,66.30
2018-05-24T07:01:04.904Z,67.40
2018-05-24T07:03:37.628Z,65.40
2018-05-24T07:06:17.332Z,66.00
2018-05-24T07:08:53.831Z,65.50
2018-05-24T07:14:09.488Z,64.30
2018-05-24T07:16:43.006Z,65.80
2018-05-24T07:19:14.949Z,65.50
2018-05-24T07:21:56.176Z,64.20
2018-05-24T07:27:12.182Z,64.00
2018-05-24T07:29:46.275Z,64.90
2018-05-24T07:32:24.752Z,65.20
2018-05-24T07:35:02.284Z,64.40
2018-05-24T07:37:40.154Z,63.70
2018-05-24T07:40:16.965Z,62.70
2018-05-24T07:42:56.739Z,63.90
2018-05-24T07:45:31.365Z,64.80
2018-05-24T07:48:16.667Z,63.60
2018-05-24T07:50:50.955Z,64.90
2018-05-24T07:53:27.787Z,63.30
2018-05-24T07:56:01.690Z,63.30
2018-05-24T07:58:41.873Z,63.80
2018-05-24T08:01:16.604Z,62.90
2018-05-24T08:03:51.563Z,62.30
2018-05-24T08:06:26.743Z,62.20
2018-05-24T08:09:03.564Z,61.90
2018-05-24T08:11:39.813Z,62.20
2018-05-24T08:14:19.684Z,62.70
2018-05-24T08:16:52.787Z,62.80
2018-05-24T08:19:30.866Z,62.00
2018-05-24T08:22:06.881Z,62.60
2018-05-24T08:24:51.834Z,62.50
2018-05-24T08:27:27.658Z,62.90
2018-05-24T08:32:43.498Z,61.60
2018-05-24T08:35:17.435Z,61.90
2018-05-24T08:37:49.048Z,61.80
2018-05-24T08:40:23.216Z,61.40
2018-05-24T08:43:00.984Z,60.90
2018-05-24T08:45:38.115Z,61.20
2018-05-24T08:48:15.365Z,60.60
2018-05-24T08:50:51.487Z,61.70
2018-05-24T08:53:25.976Z,61.40
2018-05-24T08:56:00.815Z,60.80
2018-05-24T08:58:34.464Z,59.70
2018-05-24T09:01:11.607Z,61.00
2018-05-24T09:03:52.039Z,60.70
2018-05-24T09:06:29.445Z,59.60
2018-05-24T09:09:06.502Z,60.80
2018-05-24T09:11:46.295Z,59.20
2018-05-24T09:14:23.908Z,58.30
2018-05-24T09:17:00.962Z,58.80
2018-05-24T09:19:44.905Z,58.90
2018-05-24T09:22:22.331Z,59.00
2018-05-24T09:24:56.321Z,57.80
2018-05-24T09:27:35.214Z,57.80
2018-05-24T09:30:08.011Z,57.80
2018-05-24T09:32:42.661Z,57.40
2018-05-24T09:35:19.274Z,56.60
2018-05-24T09:37:54.257Z,57.70
2018-05-24T09:40:28.574Z,57.50
2018-05-24T09:43:04.088Z,57.30
2018-05-24T09:45:37.350Z,58.10
2018-05-24T09:48:15.041Z,56.70
2018-05-24T09:50:52.717Z,57.20
2018-05-24T09:53:28.885Z,56.00
2018-05-24T09:56:03.678Z,58.40
2018-05-24T09:58:42.037Z,58.40
2018-05-24T10:01:15.703Z,58.60
2018-05-24T10:03:51.442Z,56.80
2018-05-24T10:06:27.045Z,57.00
2018-05-24T10:09:02.695Z,57.80
2018-05-24T10:11:36.764Z,57.70
2018-05-24T10:14:09.988Z,58.00
2018-05-24T10:16:43.393Z,58.90
2018-05-24T10:19:18.656Z,56.50
2018-05-24T10:21:51.126Z,56.50
2018-05-24T10:24:25.125Z,57.60
2018-05-24T10:26:59.151Z,57.30
2018-05-24T10:29:31.111Z,56.60
2018-05-24T10:32:08.580Z,57.80
2018-05-24T10:34:40.814Z,57.30
2018-05-24T10:37:17.861Z,58.40
2018-05-24T10:39:54.769Z,59.30
2018-05-24T10:42:29.829Z,58.60
2018-05-24T10:45:02.585Z,60.90
2018-05-24T10:50:19.977Z,62.20
2018-05-24T10:52:52.236Z,62.10
2018-05-24T10:55:25.661Z,61.00
2018-05-24T10:57:59.451Z,64.30
2018-05-24T11:00:36.058Z,59.70
2018-05-24T11:03:07.400Z,59.60
2018-05-24T11:05:46.314Z,60.70
2018-05-24T11:08:21.906Z,61.20
2018-05-24T11:10:56.296Z,60.80
2018-05-24T11:13:32.426Z,61.90
2018-05-24T11:16:08.979Z,60.50
2018-05-24T11:18:42.582Z,63.60
2018-05-24T11:21:17.361Z,64.00
2018-05-24T11:23:51.566Z,61.70
2018-05-24T11:26:24.115Z,61.30
2018-05-24T11:28:52.871Z,59.90
2018-05-24T11:31:21.648Z,59.70
2018-05-24T11:33:50.411Z,59.40
2018-05-24T11:36:19.213Z,58.90
2018-05-24T11:38:47.986Z,61.50
2018-05-24T11:41:16.721Z,64.60
2018-05-24T11:43:45.578Z,65.80
2018-05-24T11:46:14.336Z,63.30
2018-05-24T11:48:43.892Z,63.30
2018-05-24T11:51:12.733Z,65.40
2018-05-24T11:53:41.475Z,66.50
2018-05-24T11:56:10.301Z,66.40
2018-05-24T11:58:39.060Z,68.00
2018-05-24T12:01:07.846Z,68.80
2018-05-24T12:03:36.619Z,70.40
2018-05-24T12:06:05.415Z,69.10
2018-05-24T12:08:34.226Z,71.10
2018-05-24T12:11:03.457Z,69.70
2018-05-24T12:13:33.010Z,69.80
2018-05-24T12:16:01.801Z,69.80
2018-05-24T12:18:30.538Z,69.00
2018-05-24T12:20:59.340Z,66.80
2018-05-24T12:23:28.132Z,67.30
2018-05-24T12:25:56.921Z,68.20
2018-05-24T12:28:25.709Z,67.80
2018-05-24T12:30:54.475Z,64.80
2018-05-24T12:33:23.233Z,65.60
2018-05-24T12:35:52.048Z,67.50
2018-05-24T12:38:20.819Z,68.00
2018-05-24T12:40:49.707Z,66.70
2018-05-24T12:43:18.589Z,67.70
2018-05-24T12:45:47.337Z,69.80
2018-05-24T12:48:16.127Z,66.10
2018-05-24T12:50:45.448Z,68.50
2018-05-24T12:53:14.207Z,67.70
2018-05-24T12:55:42.985Z,67.90
2018-05-24T12:58:11.762Z,67.60
2018-05-24T13:00:40.567Z,69.50
2018-05-24T13:03:09.445Z,70.40
2018-05-24T13:05:38.573Z,67.60
2018-05-24T13:08:07.428Z,68.20
2018-05-24T13:10:36.448Z,69.00
2018-05-24T13:13:05.247Z,67.50
2018-05-24T13:15:34.013Z,69.10
2018-05-24T13:18:02.867Z,69.00
2018-05-24T13:20:31.672Z,68.30
2018-05-24T13:23:00.486Z,68.80
2018-05-24T13:25:29.295Z,66.20
2018-05-24T13:27:58.132Z,67.30
2018-05-24T13:30:26.942Z,67.90
2018-05-24T13:32:55.668Z,66.10
2018-05-24T13:35:24.485Z,67.50
2018-05-24T13:37:53.229Z,65.20
2018-05-24T13:40:22.078Z,65.40
2018-05-24T13:42:50.839Z,66.90
2018-05-24T13:45:19.712Z,65.80
2018-05-24T13:47:48.441Z,66.00
2018-05-24T13:50:17.248Z,64.40
2018-05-24T13:52:46.845Z,64.80
2018-05-24T13:55:17.480Z,66.00
2018-05-24T13:57:46.959Z,66.00
2018-05-24T14:00:15.730Z,66.50
2018-05-24T14:02:44.485Z,65.90
2018-05-24T14:05:13.281Z,65.00
2018-05-24T14:07:42.040Z,63.50
2018-05-24T14:10:11.647Z,62.90
2018-05-24T14:12:40.393Z,63.50
2018-05-24T14:15:09.178Z,64.10
2018-05-24T14:17:37.951Z,64.90
2018-05-24T14:20:06.721Z,63.90
2018-05-24T14:22:35.624Z,65.50
2018-05-24T14:25:04.397Z,65.00
2018-05-24T14:27:33.228Z,63.60
2018-05-24T14:30:02.093Z,64.00
2018-05-24T14:32:30.889Z,63.90
2018-05-24T14:34:59.700Z,63.10
2018-05-24T14:37:28.428Z,64.70
2018-05-24T14:39:57.214Z,63.80
2018-05-24T14:42:26.186Z,64.90
2018-05-24T14:44:54.998Z,65.20
2018-05-24T14:47:23.980Z,65.80
2018-05-24T14:49:52.665Z,64.00
2018-05-24T14:52:21.596Z,63.80
2018-05-24T14:54:50.477Z,65.80
2018-05-24T14:57:19.297Z,64.50
2018-05-24T14:59:48.427Z,63.90
2018-05-24T15:02:17.203Z,65.80
2018-05-24T15:04:45.983Z,65.20
2018-05-24T15:07:14.930Z,64.10
2018-05-24T15:09:43.789Z,63.30
2018-05-24T15:12:12.595Z,64.90
2018-05-24T15:14:41.423Z,65.30
2018-05-24T15:17:10.654Z,64.70
2018-05-24T15:19:39.418Z,66.10
2018-05-24T15:22:08.221Z,65.70
2018-05-24T15:24:37.788Z,64.80
2018-05-24T15:27:06.517Z,64.00
2018-05-24T15:29:35.896Z,64.00
2018-05-24T15:32:04.727Z,64.40
2018-05-24T15:34:33.637Z,64.30
2018-05-24T15:37:02.400Z,64.40
2018-05-24T15:39:31.180Z,65.10
2018-05-24T15:42:00.000Z,65.80
2018-05-24T15:44:28.734Z,65.10
2018-05-24T15:46:57.608Z,65.20
2018-05-24T15:49:26.363Z,66.60
2018-05-24T15:51:55.152Z,65.30
2018-05-24T15:54:25.113Z,66.70
2018-05-24T15:56:53.899Z,66.50
2018-05-24T15:59:22.659Z,66.10
2018-05-24T16:01:51.415Z,66.80
2018-05-24T16:04:20.183Z,67.40
2018-05-24T16:06:50.190Z,67.50
2018-05-24T16:09:18.965Z,67.70
2018-05-24T16:11:47.734Z,68.80
2018-05-24T16:14:16.486Z,67.70
2018-05-24T16:16:45.236Z,67.30
2018-05-24T16:19:14.510Z,66.60
2018-05-24T16:21:43.236Z,67.40
2018-05-24T16:24:11.979Z,67.50
2018-05-24T16:26:40.800Z,67.10
2018-05-24T16:29:09.571Z,67.60
2018-05-24T16:31:39.193Z,67.30
2018-05-24T16:34:07.960Z,68.10
2018-05-24T16:36:36.700Z,69.00
2018-05-24T16:39:06.458Z,69.20
2018-05-24T16:41:35.254Z,69.30
2018-05-24T16:44:04.010Z,68.20
2018-05-24T16:46:32.769Z,68.30
2018-05-24T16:49:01.742Z,68.00
2018-05-24T16:51:30.496Z,68.20
2018-05-24T16:53:59.341Z,68.40
2018-05-24T16:56:28.034Z,69.10
2018-05-24T16:58:56.792Z,69.00
2018-05-24T17:01:25.625Z,69.30
2018-05-24T17:03:54.575Z,69.80
2018-05-24T17:06:23.385Z,71.70
2018-05-24T17:08:52.153Z,72.20
2018-05-24T17:11:21.726Z,72.00
2018-05-24T17:13:50.437Z,71.70
2018-05-24T17:16:19.245Z,70.00
2018-05-24T17:18:48.060Z,69.10
2018-05-24T17:21:16.803Z,69.40
2018-05-24T17:23:45.560Z,70.50
2018-05-24T17:26:14.387Z,71.40
2018-05-24T17:28:43.144Z,69.00
2018-05-24T17:31:11.882Z,68.10
2018-05-24T17:33:40.673Z,68.20
2018-05-24T17:36:09.447Z,68.80
2018-05-24T17:38:38.249Z,69.40
2018-05-24T17:41:07.022Z,70.50
2018-05-24T17:43:35.911Z,69.40
2018-05-24T17:46:04.684Z,69.10
2018-05-24T17:48:33.532Z,70.30
2018-05-24T17:51:02.374Z,68.40
2018-05-24T17:53:31.220Z,68.20
2018-05-24T17:56:00.085Z,68.60
2018-05-24T17:58:28.853Z,68.80
2018-05-24T18:00:57.661Z,69.40
2018-05-24T18:03:26.516Z,69.80
2018-05-24T18:05:55.289Z,70.10
2018-05-24T18:08:24.095Z,71.20
2018-05-24T18:10:53.303Z,70.50
2018-05-24T18:13:23.270Z,69.30
2018-05-24T18:15:53.978Z,68.80
2018-05-24T18:18:23.306Z,68.80
2018-05-24T18:20:52.089Z,69.50
2018-05-24T18:23:20.880Z,69.40
2018-05-24T18:25:49.681Z,69.50
2018-05-24T18:28:18.471Z,69.20
2018-05-24T18:30:47.263Z,69.10
2018-05-24T18:33:16.120Z,68.70
2018-05-24T18:35:44.901Z,70.10
2018-05-24T18:38:13.874Z,69.80
2018-05-24T18:40:42.755Z,69.00
2018-05-24T18:43:11.485Z,68.80
2018-05-24T18:45:40.254Z,69.40
2018-05-24T18:48:09.030Z,69.10
2018-05-24T18:50:37.871Z,69.10
2018-05-24T18:53:06.647Z,68.70
2018-05-24T18:55:35.397Z,68.50
2018-05-24T18:58:04.310Z,68.50
2018-05-24T19:00:33.089Z,69.60
2018-05-24T19:03:01.859Z,69.00
2018-05-24T19:05:30.711Z,70.60
2018-05-24T19:07:59.516Z,70.10
2018-05-24T19:10:28.351Z,69.90
2018-05-24T19:12:57.104Z,68.60
2018-05-24T19:15:25.991Z,68.30
2018-05-24T19:17:54.756Z,68.80
2018-05-24T19:20:25.364Z,70.30
2018-05-24T19:22:55.068Z,70.20
2018-05-24T19:25:24.930Z,69.60
2018-05-24T19:27:54.760Z,69.80
2018-05-24T19:30:23.586Z,70.10
2018-05-24T19:32:52.352Z,69.30
2018-05-24T19:35:22.055Z,69.10
2018-05-24T19:37:52.100Z,70.50
2018-05-24T19:40:20.860Z,70.20
2018-05-24T19:42:49.666Z,70.00
2018-05-24T19:45:18.447Z,69.60
2018-05-24T19:47:47.168Z,69.50
2018-05-24T19:50:16.036Z,69.10
2018-05-24T19:52:44.826Z,68.70
2018-05-24T19:55:13.572Z,69.30
2018-05-24T19:57:42.339Z,68.90
2018-05-24T20:00:11.201Z,68.50
2018-05-24T20:02:39.919Z,68.80
2018-05-24T20:05:09.427Z,69.00
2018-05-24T20:07:38.230Z,68.90
2018-05-24T20:10:06.966Z,68.70
2018-05-24T20:12:35.712Z,69.10
2018-05-24T20:15:04.525Z,69.10
2018-05-24T20:17:33.302Z,69.70
2018-05-24T20:20:02.036Z,70.70
2018-05-24T20:22:30.859Z,70.00
2018-05-24T20:24:59.610Z,69.80
2018-05-24T20:27:28.357Z,70.40
2018-05-24T20:29:57.196Z,70.90
2018-05-24T20:32:26.412Z,71.00
2018-05-24T20:34:57.040Z,70.00
2018-05-24T20:37:26.534Z,70.00
2018-05-24T20:39:55.333Z,70.20
2018-05-24T20:42:24.097Z,72.20
2018-05-24T20:44:52.877Z,72.10
2018-05-24T20:47:21.639Z,71.30
2018-05-24T20:49:50.398Z,70.90
2018-05-24T20:52:19.174Z,70.50
2018-05-24T20:54:47.933Z,70.60
2018-05-24T20:57:16.673Z,70.60
2018-05-24T20:59:45.511Z,70.70
2018-05-24T21:02:14.256Z,70.00
2018-05-24T21:04:43.070Z,70.60
2018-05-24T21:07:11.825Z,71.10
2018-05-24T21:09:41.646Z,71.70
2018-05-24T21:12:10.485Z,71.70
2018-05-24T21:14:39.258Z,72.30
2018-05-24T21:17:08.043Z,72.60
2018-05-24T21:19:36.811Z,72.20
2018-05-24T21:22:05.589Z,73.70
2018-05-24T21:24:35.107Z,71.20
2018-05-24T21:27:04.031Z,71.20
2018-05-24T21:29:32.806Z,71.10
2018-05-24T21:32:01.550Z,71.70
2018-05-24T21:34:30.343Z,70.70
2018-05-24T21:36:59.086Z,71.00
2018-05-24T21:39:28.010Z,70.80
2018-05-24T21:41:56.809Z,72.50
2018-05-24T21:44:26.322Z,72.50
2018-05-24T21:46:55.087Z,72.50
2018-05-24T21:49:23.904Z,71.90
2018-05-24T21:51:52.662Z,72.20
2018-05-24T21:54:21.406Z,71.10
2018-05-24T21:56:50.181Z,70.80
2018-05-24T21:59:18.949Z,71.90
2018-05-24T22:01:47.830Z,72.50
2018-05-24T22:04:16.640Z,73.40
2018-05-24T22:06:45.415Z,74.00
2018-05-24T22:09:14.452Z,73.60
2018-05-24T22:11:43.258Z,72.80
2018-05-24T22:14:12.003Z,72.00
2018-05-24T22:16:41.806Z,71.40
2018-05-24T22:19:10.562Z,70.80
2018-05-24T22:21:39.326Z,71.20
2018-05-24T22:24:08.037Z,71.40
2018-05-24T22:26:36.794Z,71.50
2018-05-24T22:29:05.563Z,71.30
2018-05-24T22:31:34.331Z,71.90
2018-05-24T22:34:03.882Z,72.40
2018-05-24T22:36:32.680Z,72.30
2018-05-24T22:39:01.441Z,71.90
2018-05-24T22:41:30.262Z,72.70
2018-05-24T22:43:59.504Z,73.30
2018-05-24T22:46:28.247Z,72.30
2018-05-24T22:48:57.048Z,74.00
2018-05-24T22:51:25.796Z,75.00
2018-05-24T22:53:54.559Z,75.40
2018-05-24T22:56:23.410Z,75.10
2018-05-24T22:58:52.234Z,75.00
2018-05-24T23:01:20.973Z,73.80
2018-05-24T23:03:49.764Z,74.00
2018-05-24T23:06:18.472Z,74.40
2018-05-24T23:08:47.229Z,74.00
2018-05-24T23:11:16.040Z,74.60
2018-05-24T23:13:44.835Z,75.30
2018-05-24T23:16:13.691Z,75.00
2018-05-24T23:18:42.476Z,75.30
2018-05-24T23:21:11.262Z,75.40
2018-05-24T23:23:40.062Z,75.60
2018-05-24T23:26:08.808Z,75.80
2018-05-24T23:28:37.588Z,74.90
2018-05-24T23:31:06.488Z,75.10
2018-05-24T23:33:35.352Z,74.00
2018-05-24T23:36:04.085Z,73.00
2018-05-24T23:38:33.641Z,72.40
2018-05-24T23:41:02.455Z,72.40
2018-05-24T23:43:31.274Z,71.70
2018-05-24T23:46:00.851Z,71.30
2018-05-24T23:48:29.687Z,72.50
2018-05-24T23:50:58.621Z,73.10
2018-05-24T23:53:27.368Z,71.70
2018-05-24T23:55:56.144Z,71.30
2018-05-24T23:58:24.959Z,72.20
